createdAt,value
2023-01-17T00:00:02.841Z,8.71
2023-01-17T00:01:01.822Z,8.81
2023-01-17T00:02:01.804Z,8.64
2023-01-17T00:03:01.911Z,8.71
2023-01-17T00:04:01.869Z,8.69
2023-01-17T00:05:01.804Z,8.64
2023-01-17T00:06:01.754Z,8.73
2023-01-17T00:07:01.756Z,8.64
2023-01-17T00:08:01.761Z,8.73
2023-01-17T00:09:01.743Z,8.63
2023-01-17T00:10:01.747Z,8.76
2023-01-17T00:11:01.695Z,8.73
2023-01-17T00:12:01.701Z,8.66
2023-01-17T00:13:01.690Z,8.79
2023-01-17T00:14:01.709Z,8.78
2023-01-17T00:15:01.699Z,8.74
2023-01-17T00:16:02.727Z,8.74
2023-01-17T00:17:01.643Z,8.73
2023-01-17T00:18:01.634Z,8.74
2023-01-17T00:19:01.655Z,8.91
2023-01-17T00:20:01.641Z,8.71
2023-01-17T00:21:01.615Z,8.71
2023-01-17T00:22:01.566Z,8.85
2023-01-17T00:23:01.558Z,8.87
2023-01-17T00:24:01.582Z,8.67
2023-01-17T00:25:01.565Z,8.81
2023-01-17T00:26:01.579Z,8.74
2023-01-17T00:27:01.516Z,8.79
2023-01-17T00:28:01.550Z,8.70
2023-01-17T00:29:02.103Z,8.70
2023-01-17T00:30:01.487Z,8.79
2023-01-17T00:31:01.532Z,8.71
2023-01-17T00:32:02.512Z,8.73
2023-01-17T00:33:01.463Z,8.76
2023-01-17T00:34:01.450Z,8.82
2023-01-17T00:35:01.457Z,8.71
2023-01-17T00:36:01.442Z,8.66
2023-01-17T00:37:01.416Z,8.67
2023-01-17T00:38:01.437Z,8.71
2023-01-17T00:39:01.395Z,8.56
2023-01-17T00:40:01.381Z,8.67
2023-01-17T00:41:01.400Z,8.70
2023-01-17T00:42:01.348Z,8.56
2023-01-17T00:43:01.387Z,8.56
2023-01-17T00:44:01.374Z,8.55
2023-01-17T00:45:01.327Z,8.67
2023-01-17T00:46:01.326Z,8.60
2023-01-17T00:47:02.310Z,8.52
2023-01-17T00:48:01.304Z,8.64
2023-01-17T00:49:01.295Z,8.66
2023-01-17T00:50:01.274Z,8.55
2023-01-17T00:51:02.279Z,8.60
2023-01-17T00:52:01.268Z,8.63
2023-01-17T00:53:01.237Z,8.55
2023-01-17T00:54:01.234Z,8.55
2023-01-17T00:55:01.253Z,8.69
2023-01-17T00:56:01.199Z,8.73
2023-01-17T00:57:01.185Z,8.79
2023-01-17T00:58:01.177Z,8.78
2023-01-17T00:59:01.170Z,8.73
2023-01-17T01:00:01.206Z,8.70
2023-01-17T01:01:01.319Z,8.74
2023-01-17T01:02:02.298Z,8.70
2023-01-17T01:03:01.110Z,8.70
2023-01-17T01:04:01.105Z,8.71
2023-01-17T01:05:01.101Z,8.55
2023-01-17T01:06:01.103Z,8.53
2023-01-17T01:07:01.077Z,8.55
2023-01-17T01:08:01.114Z,8.64
2023-01-17T01:09:01.044Z,8.56
2023-01-17T01:10:01.035Z,8.56
2023-01-17T01:11:01.048Z,8.64
2023-01-17T01:12:02.019Z,8.61
2023-01-17T01:13:01.043Z,8.38
2023-01-17T01:14:01.013Z,8.34
2023-01-17T01:15:00.995Z,8.46
2023-01-17T01:16:02.059Z,8.56
2023-01-17T01:17:00.997Z,8.46
2023-01-17T01:18:00.991Z,8.55
2023-01-17T01:19:00.947Z,8.46
2023-01-17T01:20:00.937Z,8.52
2023-01-17T01:21:00.928Z,8.44
2023-01-17T01:22:00.922Z,8.37
2023-01-17T01:23:00.912Z,8.42
2023-01-17T01:24:00.888Z,8.45
2023-01-17T01:25:00.881Z,8.53
2023-01-17T01:26:00.865Z,8.53
2023-01-17T01:27:00.880Z,8.55
2023-01-17T01:28:00.868Z,8.49
2023-01-17T01:29:01.885Z,8.56
2023-01-17T01:30:00.819Z,8.53
2023-01-17T01:31:00.799Z,8.58
2023-01-17T01:32:00.821Z,8.64
2023-01-17T01:33:00.816Z,8.55
2023-01-17T01:34:00.810Z,8.70
2023-01-17T01:35:00.792Z,8.63
2023-01-17T01:36:00.758Z,8.61
2023-01-17T01:37:00.744Z,8.71
2023-01-17T01:38:00.731Z,8.61
2023-01-17T01:39:00.705Z,8.56
2023-01-17T01:40:00.727Z,8.56
2023-01-17T01:41:00.722Z,8.67
2023-01-17T01:42:00.681Z,8.55
2023-01-17T01:43:00.710Z,8.55
2023-01-17T01:44:00.676Z,8.52
2023-01-17T01:45:00.664Z,8.66
2023-01-17T01:46:00.702Z,8.70
2023-01-17T01:47:01.645Z,8.64
2023-01-17T01:48:00.616Z,8.67
2023-01-17T01:49:00.601Z,8.61
2023-01-17T01:50:00.639Z,8.67
2023-01-17T01:51:00.598Z,8.67
2023-01-17T01:52:00.598Z,8.53
2023-01-17T01:53:00.544Z,8.52
2023-01-17T01:54:00.533Z,8.48
2023-01-17T01:55:00.541Z,8.53
2023-01-17T01:56:00.595Z,8.55
2023-01-17T01:57:00.519Z,8.53
2023-01-17T01:58:00.529Z,8.69
2023-01-17T01:59:00.494Z,8.74
2023-01-17T02:00:00.480Z,8.70
2023-01-17T02:01:00.760Z,8.55
2023-01-17T02:02:01.461Z,8.58
2023-01-17T02:03:00.440Z,8.64
2023-01-17T02:04:01.483Z,8.55
2023-01-17T02:05:01.485Z,8.70
2023-01-17T02:06:00.439Z,8.55
2023-01-17T02:07:01.401Z,8.53
2023-01-17T02:08:00.404Z,8.52
2023-01-17T02:09:01.382Z,8.45
2023-01-17T02:10:00.397Z,8.42
2023-01-17T02:11:00.338Z,8.27
2023-01-17T02:12:00.578Z,8.30
2023-01-17T02:13:00.337Z,8.26
2023-01-17T02:14:00.332Z,8.16
2023-01-17T02:15:00.340Z,8.15
2023-01-17T02:16:00.345Z,8.10
2023-01-17T02:17:01.315Z,8.08
2023-01-17T02:18:00.283Z,8.03
2023-01-17T02:19:00.267Z,8.09
2023-01-17T02:20:00.277Z,8.03
2023-01-17T02:21:00.231Z,8.05
2023-01-17T02:22:01.309Z,8.13
2023-01-17T02:23:00.224Z,8.05
2023-01-17T02:24:00.214Z,8.05
2023-01-17T02:25:01.204Z,8.08
2023-01-17T02:26:00.201Z,8.06
2023-01-17T02:27:01.186Z,8.10
2023-01-17T02:28:00.224Z,8.13
2023-01-17T02:29:00.151Z,8.08
2023-01-17T02:30:00.175Z,8.06
2023-01-17T02:31:01.171Z,8.09
2023-01-17T02:32:00.161Z,7.95
2023-01-17T02:33:00.094Z,7.91
2023-01-17T02:34:00.134Z,7.97
2023-01-17T02:35:00.133Z,7.93
2023-01-17T02:36:00.121Z,7.94
2023-01-17T02:37:00.107Z,7.85
2023-01-17T02:38:00.070Z,7.83
2023-01-17T02:39:01.048Z,7.70
2023-01-17T02:40:00.068Z,7.94
2023-01-17T02:41:00.039Z,7.91
2023-01-17T02:42:01.053Z,7.90
2023-01-17T02:43:00.001Z,7.83
2023-01-17T02:44:00.127Z,7.98
2023-01-17T02:44:59.981Z,7.97
2023-01-17T02:46:00.052Z,7.95
2023-01-17T02:46:59.986Z,7.83
2023-01-17T02:47:59.991Z,7.73
2023-01-17T02:48:59.939Z,7.72
2023-01-17T02:49:59.941Z,7.66
2023-01-17T02:51:00.899Z,7.60
2023-01-17T02:51:59.919Z,7.75
2023-01-17T02:52:59.908Z,7.75
2023-01-17T02:53:59.919Z,7.66
2023-01-17T02:54:59.876Z,7.66
2023-01-17T02:55:59.896Z,7.79
2023-01-17T02:56:59.845Z,7.75
2023-01-17T02:57:59.841Z,7.82
2023-01-17T02:58:59.847Z,7.83
2023-01-17T02:59:59.905Z,7.94
2023-01-17T03:00:59.939Z,7.97
2023-01-17T03:01:59.925Z,8.01
2023-01-17T03:02:59.777Z,8.01
2023-01-17T03:03:59.804Z,7.97
2023-01-17T03:04:59.771Z,7.70
2023-01-17T03:06:00.732Z,7.83
2023-01-17T03:06:59.758Z,7.82
2023-01-17T03:07:59.751Z,7.80
2023-01-17T03:08:59.730Z,7.82
2023-01-17T03:09:59.719Z,7.85
2023-01-17T03:10:59.709Z,7.79
2023-01-17T03:12:00.715Z,7.76
2023-01-17T03:12:59.696Z,7.85
2023-01-17T03:14:00.674Z,7.87
2023-01-17T03:15:00.680Z,7.87
2023-01-17T03:15:59.670Z,7.91
2023-01-17T03:16:59.627Z,7.94
2023-01-17T03:18:00.631Z,7.97
2023-01-17T03:18:59.627Z,7.97
2023-01-17T03:19:59.594Z,7.87
2023-01-17T03:20:59.604Z,7.83
2023-01-17T03:21:59.582Z,7.94
2023-01-17T03:22:59.563Z,7.95
2023-01-17T03:24:00.555Z,7.73
2023-01-17T03:24:59.569Z,7.85
2023-01-17T03:26:00.556Z,7.90
2023-01-17T03:26:59.518Z,7.97
2023-01-17T03:27:59.509Z,8.05
2023-01-17T03:28:59.495Z,8.06
2023-01-17T03:29:59.503Z,7.91
2023-01-17T03:30:59.547Z,7.97
2023-01-17T03:31:59.478Z,7.90
2023-01-17T03:32:59.453Z,7.88
2023-01-17T03:33:59.443Z,8.00
2023-01-17T03:34:59.434Z,7.97
2023-01-17T03:35:59.426Z,7.93
2023-01-17T03:37:00.426Z,7.73
2023-01-17T03:37:59.402Z,7.97
2023-01-17T03:38:59.384Z,8.00
2023-01-17T03:39:59.388Z,7.80
2023-01-17T03:41:00.400Z,7.95
2023-01-17T03:41:59.360Z,8.00
2023-01-17T03:42:59.330Z,8.09
2023-01-17T03:43:59.317Z,8.05
2023-01-17T03:44:59.303Z,8.00
2023-01-17T03:45:59.376Z,7.85
2023-01-17T03:46:59.309Z,7.67
2023-01-17T03:47:59.294Z,7.57
2023-01-17T03:48:59.278Z,7.56
2023-01-17T03:49:59.246Z,7.75
2023-01-17T03:50:59.254Z,7.69
2023-01-17T03:51:59.267Z,7.83
2023-01-17T03:52:59.220Z,7.82
2023-01-17T03:53:59.249Z,7.97
2023-01-17T03:54:59.204Z,7.82
2023-01-17T03:55:59.181Z,7.90
2023-01-17T03:57:00.182Z,7.79
2023-01-17T03:57:59.250Z,7.76
2023-01-17T03:58:59.183Z,7.85
2023-01-17T03:59:59.134Z,7.94
2023-01-17T04:00:59.245Z,8.00
2023-01-17T04:01:59.144Z,7.90
2023-01-17T04:02:59.100Z,7.72
2023-01-17T04:03:59.126Z,7.90
2023-01-17T04:04:59.119Z,7.85
2023-01-17T04:05:59.074Z,7.83
2023-01-17T04:06:59.067Z,7.90
2023-01-17T04:07:59.052Z,7.95
2023-01-17T04:08:59.058Z,7.83
2023-01-17T04:10:00.543Z,7.80
2023-01-17T04:10:59.029Z,7.88
2023-01-17T04:12:00.057Z,7.97
2023-01-17T04:12:58.995Z,7.82
2023-01-17T04:13:59.006Z,7.83
2023-01-17T04:14:59.016Z,7.90
2023-01-17T04:15:58.982Z,7.69
2023-01-17T04:16:58.973Z,7.48
2023-01-17T04:17:58.939Z,7.60
2023-01-17T04:18:58.986Z,7.79
2023-01-17T04:19:58.957Z,7.73
2023-01-17T04:20:58.903Z,7.75
2023-01-17T04:21:58.927Z,7.82
2023-01-17T04:22:58.930Z,7.76
2023-01-17T04:23:58.885Z,7.75
2023-01-17T04:24:58.889Z,7.76
2023-01-17T04:25:58.883Z,7.72
2023-01-17T04:26:58.859Z,7.66
2023-01-17T04:27:58.855Z,7.73
2023-01-17T04:28:58.853Z,7.77
2023-01-17T04:29:58.818Z,7.77
2023-01-17T04:30:58.872Z,7.76
2023-01-17T04:31:58.795Z,7.75
2023-01-17T04:32:58.797Z,7.75
2023-01-17T04:33:58.794Z,7.75
2023-01-17T04:34:58.764Z,7.77
2023-01-17T04:35:58.805Z,7.63
2023-01-17T04:36:58.741Z,7.66
2023-01-17T04:37:58.795Z,7.75
2023-01-17T04:38:59.761Z,7.75
2023-01-17T04:39:58.722Z,7.75
2023-01-17T04:40:59.709Z,7.67
2023-01-17T04:41:58.740Z,7.50
2023-01-17T04:42:59.704Z,7.53
2023-01-17T04:43:58.707Z,7.48
2023-01-17T04:44:58.651Z,7.58
2023-01-17T04:45:58.721Z,7.63
2023-01-17T04:46:58.630Z,7.45
2023-01-17T04:47:58.628Z,7.36
2023-01-17T04:48:59.632Z,7.35
2023-01-17T04:49:58.618Z,7.36
2023-01-17T04:50:58.601Z,7.32
2023-01-17T04:51:58.625Z,7.45
2023-01-17T04:52:58.607Z,7.48
2023-01-17T04:53:58.555Z,7.48
2023-01-17T04:54:59.590Z,7.31
2023-01-17T04:55:58.540Z,7.38
2023-01-17T04:56:59.521Z,7.51
2023-01-17T04:57:58.551Z,7.54
2023-01-17T04:58:59.516Z,7.57
2023-01-17T04:59:58.512Z,7.45
2023-01-17T05:00:58.570Z,7.58
2023-01-17T05:01:58.524Z,7.48
2023-01-17T05:02:58.498Z,7.51
2023-01-17T05:03:58.483Z,7.63
2023-01-17T05:04:58.439Z,7.70
2023-01-17T05:05:58.433Z,7.57
2023-01-17T05:06:58.446Z,7.47
2023-01-17T05:07:58.461Z,7.48
2023-01-17T05:08:58.424Z,7.45
2023-01-17T05:09:58.438Z,7.57
2023-01-17T05:10:58.382Z,7.69
2023-01-17T05:11:58.370Z,7.63
2023-01-17T05:12:59.398Z,7.56
2023-01-17T05:13:58.355Z,7.56
2023-01-17T05:14:59.357Z,7.63
2023-01-17T05:15:58.376Z,7.45
2023-01-17T05:16:58.334Z,7.51
2023-01-17T05:17:58.319Z,7.53
2023-01-17T05:18:58.315Z,7.48
2023-01-17T05:19:58.273Z,7.63
2023-01-17T05:20:59.259Z,7.56
2023-01-17T05:21:58.342Z,7.60
2023-01-17T05:22:58.268Z,7.53
2023-01-17T05:23:58.248Z,7.48
2023-01-17T05:24:58.237Z,7.53
2023-01-17T05:25:58.205Z,7.40
2023-01-17T05:26:58.219Z,7.40
2023-01-17T05:27:59.218Z,7.51
2023-01-17T05:28:58.172Z,7.39
2023-01-17T05:29:58.177Z,7.29
2023-01-17T05:30:59.201Z,7.31
2023-01-17T05:31:58.211Z,7.54
2023-01-17T05:32:58.142Z,7.51
2023-01-17T05:33:59.121Z,7.48
2023-01-17T05:34:59.144Z,7.54
2023-01-17T05:35:58.130Z,7.56
2023-01-17T05:36:58.095Z,7.54
2023-01-17T05:37:59.098Z,7.63
2023-01-17T05:38:58.095Z,7.56
2023-01-17T05:39:58.077Z,7.54
2023-01-17T05:40:58.074Z,7.48
2023-01-17T05:41:59.038Z,7.50
2023-01-17T05:42:58.059Z,7.61
2023-01-17T05:43:58.016Z,7.63
2023-01-17T05:44:59.000Z,7.66
2023-01-17T05:45:58.073Z,7.53
2023-01-17T05:46:57.980Z,7.63
2023-01-17T05:47:57.982Z,7.57
2023-01-17T05:48:57.994Z,7.53
2023-01-17T05:49:57.989Z,7.58
2023-01-17T05:50:57.964Z,7.60
2023-01-17T05:51:57.981Z,7.57
2023-01-17T05:52:58.948Z,7.51
2023-01-17T05:53:57.917Z,7.56
2023-01-17T05:54:57.908Z,7.72
2023-01-17T05:55:57.920Z,7.61
2023-01-17T05:56:57.918Z,7.60
2023-01-17T05:57:57.914Z,7.66
2023-01-17T05:58:57.872Z,7.73
2023-01-17T05:59:57.841Z,7.53
2023-01-17T06:00:57.867Z,7.54
2023-01-17T06:01:57.848Z,7.72
2023-01-17T06:02:58.870Z,7.66
2023-01-17T06:03:57.789Z,7.76
2023-01-17T06:04:57.799Z,7.69
2023-01-17T06:05:57.806Z,7.73
2023-01-17T06:06:57.777Z,7.73
2023-01-17T06:07:57.790Z,7.72
2023-01-17T06:08:57.772Z,7.85
2023-01-17T06:09:57.733Z,7.73
2023-01-17T06:10:57.749Z,7.85
2023-01-17T06:11:57.766Z,7.85
2023-01-17T06:12:57.735Z,7.82
2023-01-17T06:13:58.682Z,7.87
2023-01-17T06:14:58.682Z,7.75
2023-01-17T06:15:58.982Z,7.75
2023-01-17T06:16:58.662Z,7.72
2023-01-17T06:17:58.665Z,7.75
2023-01-17T06:18:58.669Z,7.58
2023-01-17T06:19:58.634Z,7.66
2023-01-17T06:20:57.666Z,7.66
2023-01-17T06:21:57.611Z,7.53
2023-01-17T06:22:57.593Z,7.63
2023-01-17T06:23:57.643Z,7.60
2023-01-17T06:24:57.579Z,7.63
2023-01-17T06:25:58.613Z,7.50
2023-01-17T06:26:57.594Z,7.70
2023-01-17T06:27:57.576Z,7.63
2023-01-17T06:28:57.539Z,7.69
2023-01-17T06:29:57.544Z,7.57
2023-01-17T06:30:57.547Z,7.51
2023-01-17T06:31:57.541Z,7.43
2023-01-17T06:32:57.520Z,7.51
2023-01-17T06:33:57.503Z,7.48
2023-01-17T06:34:57.476Z,7.50
2023-01-17T06:35:58.463Z,7.57
2023-01-17T06:36:57.449Z,7.66
2023-01-17T06:37:57.463Z,7.48
2023-01-17T06:38:57.458Z,7.50
2023-01-17T06:39:57.426Z,7.43
2023-01-17T06:40:57.466Z,7.42
2023-01-17T06:41:57.417Z,7.48
2023-01-17T06:42:57.387Z,7.58
2023-01-17T06:43:57.412Z,7.63
2023-01-17T06:44:57.402Z,7.63
2023-01-17T06:45:57.356Z,7.66
2023-01-17T06:46:57.347Z,7.47
2023-01-17T06:47:58.325Z,7.66
2023-01-17T06:48:57.324Z,7.60
2023-01-17T06:49:57.325Z,7.50
2023-01-17T06:50:58.398Z,7.61
2023-01-17T06:51:57.282Z,7.60
2023-01-17T06:52:57.293Z,7.60
2023-01-17T06:53:57.274Z,7.63
2023-01-17T06:54:57.255Z,7.70
2023-01-17T06:55:57.259Z,7.82
2023-01-17T06:56:57.264Z,7.75
2023-01-17T06:57:57.253Z,7.61
2023-01-17T06:58:57.220Z,7.57
2023-01-17T06:59:57.265Z,7.61
2023-01-17T07:00:57.315Z,7.61
2023-01-17T07:01:58.166Z,7.61
2023-01-17T07:02:57.166Z,7.58
2023-01-17T07:03:57.178Z,7.48
2023-01-17T07:04:57.160Z,7.47
2023-01-17T07:05:57.163Z,7.21
2023-01-17T07:06:58.130Z,7.14
2023-01-17T07:07:57.154Z,7.21
2023-01-17T07:08:57.097Z,7.25
2023-01-17T07:09:57.103Z,7.32
2023-01-17T07:10:57.116Z,7.35
2023-01-17T07:11:58.101Z,7.29
2023-01-17T07:12:57.070Z,7.11
2023-01-17T07:13:57.083Z,7.15
2023-01-17T07:14:57.035Z,7.21
2023-01-17T07:15:57.112Z,7.15
2023-01-17T07:16:57.016Z,7.21
2023-01-17T07:17:57.010Z,7.15
2023-01-17T07:18:57.013Z,7.13
2023-01-17T07:19:56.983Z,7.20
2023-01-17T07:20:57.979Z,7.17
2023-01-17T07:21:57.036Z,7.38
2023-01-17T07:22:56.994Z,7.29
2023-01-17T07:23:56.939Z,7.29
2023-01-17T07:24:56.960Z,7.21
2023-01-17T07:25:56.983Z,7.24
2023-01-17T07:26:56.911Z,7.25
2023-01-17T07:27:56.928Z,7.20
2023-01-17T07:28:56.933Z,7.25
2023-01-17T07:29:56.900Z,7.14
2023-01-17T07:30:56.847Z,7.05
2023-01-17T07:31:57.935Z,7.05
2023-01-17T07:32:56.906Z,7.13
2023-01-17T07:33:56.840Z,7.06
2023-01-17T07:34:56.833Z,7.02
2023-01-17T07:35:56.823Z,7.05
2023-01-17T07:36:57.815Z,7.05
2023-01-17T07:37:56.795Z,7.18
2023-01-17T07:38:57.820Z,7.07
2023-01-17T07:39:56.781Z,7.06
2023-01-17T07:40:57.776Z,7.07
2023-01-17T07:41:57.736Z,7.05
2023-01-17T07:42:57.733Z,7.14
2023-01-17T07:43:57.811Z,7.21
2023-01-17T07:44:57.716Z,7.24
2023-01-17T07:45:56.706Z,7.36
2023-01-17T07:46:56.738Z,7.36
2023-01-17T07:47:56.697Z,7.36
2023-01-17T07:48:56.655Z,7.47
2023-01-17T07:49:56.696Z,7.36
2023-01-17T07:50:56.683Z,7.42
2023-01-17T07:51:56.683Z,7.43
2023-01-17T07:52:56.643Z,7.40
2023-01-17T07:53:56.621Z,7.45
2023-01-17T07:54:56.590Z,7.31
2023-01-17T07:55:57.584Z,7.35
2023-01-17T07:56:57.629Z,7.23
2023-01-17T07:57:56.566Z,7.06
2023-01-17T07:58:57.579Z,7.24
2023-01-17T07:59:56.569Z,7.23
2023-01-17T08:00:56.650Z,7.43
2023-01-17T08:01:56.744Z,7.43
2023-01-17T08:02:56.544Z,7.42
2023-01-17T08:03:56.651Z,7.33
2023-01-17T08:04:56.635Z,7.28
2023-01-17T08:05:56.506Z,7.36
2023-01-17T08:06:56.480Z,7.17
2023-01-17T08:07:56.474Z,7.29
2023-01-17T08:08:56.514Z,7.24
2023-01-17T08:09:57.451Z,7.23
2023-01-17T08:10:57.448Z,7.32
2023-01-17T08:11:56.424Z,7.31
2023-01-17T08:12:56.445Z,7.13
2023-01-17T08:13:56.421Z,7.21
2023-01-17T08:14:57.417Z,7.17
2023-01-17T08:15:56.384Z,7.06
2023-01-17T08:16:56.384Z,7.05
2023-01-17T08:17:56.380Z,7.03
2023-01-17T08:18:56.334Z,7.13
2023-01-17T08:19:56.398Z,7.15
2023-01-17T08:20:56.334Z,7.06
2023-01-17T08:21:56.323Z,7.03
2023-01-17T08:22:56.302Z,7.06
2023-01-17T08:23:56.309Z,6.93
2023-01-17T08:24:56.291Z,7.02
2023-01-17T08:25:56.279Z,6.89
2023-01-17T08:26:56.265Z,6.87
2023-01-17T08:27:57.261Z,6.79
2023-01-17T08:28:56.268Z,6.69
2023-01-17T08:29:56.252Z,6.78
2023-01-17T08:30:56.237Z,6.82
2023-01-17T08:31:56.299Z,6.79
2023-01-17T08:32:56.193Z,6.95
2023-01-17T08:33:56.180Z,6.89
2023-01-17T08:34:56.165Z,7.05
2023-01-17T08:35:57.190Z,7.02
2023-01-17T08:36:56.147Z,7.07
2023-01-17T08:37:56.173Z,7.14
2023-01-17T08:38:56.143Z,7.17
2023-01-17T08:39:57.131Z,7.03
2023-01-17T08:40:56.100Z,6.97
2023-01-17T08:41:56.083Z,7.02
2023-01-17T08:42:56.088Z,7.11
2023-01-17T08:43:56.061Z,7.15
2023-01-17T08:44:56.125Z,7.23
2023-01-17T08:45:56.246Z,7.23
2023-01-17T08:46:56.047Z,7.23
2023-01-17T08:47:56.019Z,7.11
2023-01-17T08:48:56.036Z,7.14
2023-01-17T08:49:56.006Z,7.17
2023-01-17T08:50:57.005Z,7.11
2023-01-17T08:51:56.026Z,7.06
2023-01-17T08:52:55.988Z,7.02
2023-01-17T08:53:55.955Z,7.03
2023-01-17T08:54:56.969Z,6.97
2023-01-17T08:55:55.960Z,6.97
2023-01-17T08:56:56.947Z,6.96
2023-01-17T08:57:55.925Z,6.85
2023-01-17T08:58:55.936Z,6.96
2023-01-17T08:59:55.901Z,6.92
2023-01-17T09:00:56.982Z,6.95
2023-01-17T09:01:56.071Z,6.84
2023-01-17T09:02:55.924Z,6.92
2023-01-17T09:03:55.908Z,6.92
2023-01-17T09:04:56.835Z,6.92
2023-01-17T09:05:56.846Z,6.85
2023-01-17T09:06:56.827Z,6.85
2023-01-17T09:07:55.871Z,6.87
2023-01-17T09:08:55.799Z,7.02
2023-01-17T09:09:55.805Z,6.89
2023-01-17T09:10:55.794Z,6.88
2023-01-17T09:11:55.778Z,6.89
2023-01-17T09:12:55.764Z,6.93
2023-01-17T09:14:03.404Z,7.07
2023-01-17T09:14:55.827Z,6.97
2023-01-17T09:15:55.736Z,6.99
2023-01-17T09:16:56.728Z,6.88
2023-01-17T09:17:56.712Z,6.99
2023-01-17T09:18:55.737Z,7.02
2023-01-17T09:19:55.699Z,7.21
2023-01-17T09:20:55.665Z,7.21
2023-01-17T09:21:55.679Z,7.32
2023-01-17T09:22:55.672Z,7.45
2023-01-17T09:23:55.693Z,7.60
2023-01-17T09:24:55.662Z,7.56
2023-01-17T09:25:55.617Z,7.73
2023-01-17T09:26:55.615Z,7.85
2023-01-17T09:27:55.610Z,8.05
2023-01-17T09:28:55.639Z,8.06
2023-01-17T09:29:56.569Z,8.15
2023-01-17T09:30:55.650Z,8.10
2023-01-17T09:31:55.583Z,8.18
2023-01-17T09:32:55.549Z,8.16
2023-01-17T09:33:55.565Z,8.18
2023-01-17T09:34:55.536Z,8.38
2023-01-17T09:35:55.511Z,8.41
2023-01-17T09:36:55.491Z,8.41
2023-01-17T09:37:57.248Z,8.33
2023-01-17T09:38:55.471Z,8.45
2023-01-17T09:39:56.507Z,8.45
2023-01-17T09:40:55.443Z,8.49
2023-01-17T09:41:55.465Z,8.46
2023-01-17T09:42:55.451Z,8.55
2023-01-17T09:43:55.439Z,8.53
2023-01-17T09:44:55.419Z,8.56
2023-01-17T09:45:56.450Z,8.55
2023-01-17T09:46:55.482Z,8.58
2023-01-17T09:47:55.376Z,8.42
2023-01-17T09:48:56.377Z,8.36
2023-01-17T09:49:55.383Z,8.46
2023-01-17T09:50:55.354Z,8.46
2023-01-17T09:51:55.419Z,8.30
2023-01-17T09:52:55.314Z,8.03
2023-01-17T09:53:55.311Z,8.10
2023-01-17T09:54:55.331Z,8.18
2023-01-17T09:55:55.315Z,8.27
2023-01-17T09:56:55.288Z,8.15
2023-01-17T09:57:55.279Z,8.20
2023-01-17T09:58:55.260Z,8.10
2023-01-17T10:00:03.295Z,8.15
2023-01-17T10:00:56.391Z,8.26
2023-01-17T10:01:56.371Z,8.16
2023-01-17T10:02:56.388Z,8.13
2023-01-17T10:03:55.487Z,8.13
2023-01-17T10:04:55.188Z,8.13
2023-01-17T10:05:55.176Z,8.06
2023-01-17T10:06:55.155Z,8.20
2023-01-17T10:07:55.149Z,8.26
2023-01-17T10:08:55.162Z,8.09
2023-01-17T10:09:55.136Z,7.90
2023-01-17T10:10:56.145Z,7.88
2023-01-17T10:11:55.125Z,7.88
2023-01-17T10:12:55.091Z,8.03
2023-01-17T10:13:56.076Z,8.06
2023-01-17T10:14:55.314Z,8.15
2023-01-17T10:15:55.094Z,8.08
2023-01-17T10:16:56.113Z,8.01
2023-01-17T10:17:55.076Z,8.01
2023-01-17T10:18:55.038Z,7.94
2023-01-17T10:19:56.027Z,7.88
2023-01-17T10:20:55.026Z,7.87
2023-01-17T10:21:54.999Z,7.91
2023-01-17T10:22:54.990Z,7.90
2023-01-17T10:23:54.999Z,7.76
2023-01-17T10:24:54.958Z,7.90
2023-01-17T10:25:54.972Z,7.88
2023-01-17T10:26:54.961Z,7.98
2023-01-17T10:27:54.951Z,8.03
2023-01-17T10:28:54.924Z,7.98
2023-01-17T10:29:54.911Z,7.87
2023-01-17T10:30:54.947Z,8.00
2023-01-17T10:31:55.934Z,8.05
2023-01-17T10:32:54.862Z,8.18
2023-01-17T10:33:54.918Z,8.15
2023-01-17T10:34:54.874Z,8.06
2023-01-17T10:35:54.859Z,8.08
2023-01-17T10:36:54.831Z,8.00
2023-01-17T10:37:55.785Z,8.09
2023-01-17T10:38:54.795Z,8.05
2023-01-17T10:39:55.872Z,7.76
2023-01-17T10:40:55.778Z,7.83
2023-01-17T10:41:54.792Z,7.85
2023-01-17T10:42:54.791Z,7.85
2023-01-17T10:43:54.783Z,8.10
2023-01-17T10:44:54.727Z,8.08
2023-01-17T10:45:55.751Z,8.06
2023-01-17T10:46:54.711Z,8.13
2023-01-17T10:47:54.722Z,8.30
2023-01-17T10:48:54.725Z,8.33
2023-01-17T10:49:54.701Z,8.55
2023-01-17T10:50:54.714Z,8.46
2023-01-17T10:51:54.663Z,8.61
2023-01-17T10:52:54.696Z,8.49
2023-01-17T10:53:55.626Z,8.51
2023-01-17T10:54:54.626Z,8.55
2023-01-17T10:55:54.610Z,8.55
2023-01-17T10:56:55.629Z,8.48
2023-01-17T10:57:54.632Z,8.56
2023-01-17T10:58:55.587Z,8.49
2023-01-17T10:59:54.684Z,8.44
2023-01-17T11:00:54.587Z,8.38
2023-01-17T11:01:54.608Z,8.44
2023-01-17T11:02:54.573Z,8.33
2023-01-17T11:03:55.554Z,8.10
2023-01-17T11:04:55.520Z,8.10
2023-01-17T11:05:54.518Z,8.15
2023-01-17T11:06:58.377Z,8.16
2023-01-17T11:07:54.524Z,8.28
2023-01-17T11:08:54.497Z,8.30
2023-01-17T11:09:54.483Z,8.18
2023-01-17T11:10:54.490Z,8.13
2023-01-17T11:11:55.455Z,8.13
2023-01-17T11:12:54.445Z,8.18
2023-01-17T11:13:54.409Z,8.10
2023-01-17T11:14:54.396Z,8.09
2023-01-17T11:15:54.446Z,8.20
2023-01-17T11:16:54.400Z,8.16
2023-01-17T11:17:54.397Z,8.18
2023-01-17T11:18:55.361Z,8.18
2023-01-17T11:19:54.340Z,8.00
2023-01-17T11:20:54.352Z,8.13
2023-01-17T11:21:54.312Z,8.18
2023-01-17T11:22:55.306Z,8.10
2023-01-17T11:23:54.321Z,8.09
2023-01-17T11:24:55.351Z,8.12
2023-01-17T11:25:54.283Z,8.19
2023-01-17T11:26:54.277Z,8.20
2023-01-17T11:27:55.265Z,8.03
2023-01-17T11:28:54.256Z,8.18
2023-01-17T11:29:55.271Z,8.18
2023-01-17T11:30:54.265Z,8.27
2023-01-17T11:31:54.234Z,8.42
2023-01-17T11:32:54.237Z,8.30
2023-01-17T11:33:54.181Z,8.44
2023-01-17T11:34:54.197Z,8.55
2023-01-17T11:35:55.184Z,8.78
2023-01-17T11:36:54.159Z,8.71
2023-01-17T11:37:55.186Z,8.88
2023-01-17T11:38:54.149Z,8.89
2023-01-17T11:39:55.136Z,8.84
2023-01-17T11:40:55.124Z,8.95
2023-01-17T11:41:54.102Z,8.92
2023-01-17T11:42:54.089Z,8.94
2023-01-17T11:43:55.116Z,8.87
2023-01-17T11:44:54.090Z,8.99
2023-01-17T11:45:54.090Z,8.92
2023-01-17T11:46:54.047Z,8.97
2023-01-17T11:47:54.061Z,9.03
2023-01-17T11:48:56.194Z,8.95
2023-01-17T11:49:55.032Z,8.73
2023-01-17T11:50:53.989Z,8.46
2023-01-17T11:51:54.024Z,8.30
2023-01-17T11:52:53.985Z,8.16
2023-01-17T11:53:53.976Z,8.13
2023-01-17T11:54:53.949Z,8.28
2023-01-17T11:55:53.950Z,8.45
2023-01-17T11:56:53.965Z,8.37
2023-01-17T11:57:56.497Z,8.15
2023-01-17T11:58:54.946Z,8.30
2023-01-17T11:59:53.889Z,8.20
2023-01-17T12:00:53.901Z,8.42
2023-01-17T12:01:53.887Z,8.60
2023-01-17T12:02:53.903Z,8.73
2023-01-17T12:03:53.934Z,8.69
2023-01-17T12:04:53.893Z,8.79
2023-01-17T12:05:53.872Z,8.53
2023-01-17T12:06:57.936Z,8.85
2023-01-17T12:07:53.840Z,8.97
2023-01-17T12:08:53.807Z,9.13
2023-01-17T12:09:53.804Z,9.18
2023-01-17T12:10:53.781Z,9.18
2023-01-17T12:11:53.769Z,9.25
2023-01-17T12:12:54.252Z,9.28
2023-01-17T12:13:53.739Z,9.22
2023-01-17T12:14:53.746Z,9.16
2023-01-17T12:15:54.781Z,8.91
2023-01-17T12:16:54.702Z,8.76
2023-01-17T12:17:53.727Z,8.76
2023-01-17T12:18:53.699Z,8.73
2023-01-17T12:19:53.699Z,8.56
2023-01-17T12:20:53.683Z,8.51
2023-01-17T12:21:53.683Z,8.33
2023-01-17T12:22:53.643Z,8.33
2023-01-17T12:23:53.637Z,8.34
2023-01-17T12:24:53.639Z,8.16
2023-01-17T12:25:53.617Z,8.26
2023-01-17T12:26:53.611Z,8.38
2023-01-17T12:27:53.611Z,8.37
2023-01-17T12:28:53.567Z,8.42
2023-01-17T12:29:53.552Z,8.44
2023-01-17T12:30:54.612Z,8.53
2023-01-17T12:31:53.549Z,8.49
2023-01-17T12:32:53.561Z,8.44
2023-01-17T12:33:53.531Z,8.27
2023-01-17T12:34:53.549Z,8.33
2023-01-17T12:35:54.517Z,8.38
2023-01-17T12:36:53.507Z,8.28
2023-01-17T12:38:04.420Z,8.20
2023-01-17T12:38:54.545Z,8.28
2023-01-17T12:39:54.503Z,8.46
2023-01-17T12:40:54.429Z,8.73
2023-01-17T12:41:53.432Z,8.78
2023-01-17T12:42:53.407Z,8.82
2023-01-17T12:43:53.419Z,8.87
2023-01-17T12:44:53.384Z,9.00
2023-01-17T12:45:53.420Z,9.19
2023-01-17T12:46:53.433Z,9.13
2023-01-17T12:47:53.367Z,9.14
2023-01-17T12:48:53.360Z,9.11
2023-01-17T12:49:54.357Z,9.00
2023-01-17T12:50:53.346Z,9.16
2023-01-17T12:51:53.359Z,8.92
2023-01-17T12:52:53.325Z,8.71
2023-01-17T12:53:54.308Z,8.73
2023-01-17T12:54:53.292Z,8.71
2023-01-17T12:55:54.272Z,8.74
2023-01-17T12:56:53.323Z,8.71
2023-01-17T12:57:53.265Z,8.53
2023-01-17T12:58:53.258Z,8.48
2023-01-17T12:59:53.231Z,8.53
2023-01-17T13:00:53.265Z,8.55
2023-01-17T13:01:53.321Z,8.67
2023-01-17T13:02:53.229Z,8.44
2023-01-17T13:03:53.168Z,8.53
2023-01-17T13:04:58.718Z,8.38
2023-01-17T13:05:54.159Z,8.15
2023-01-17T13:06:53.180Z,8.15
2023-01-17T13:07:54.151Z,8.30
2023-01-17T13:08:53.145Z,8.38
2023-01-17T13:09:53.114Z,8.37
2023-01-17T13:10:53.096Z,8.44
2023-01-17T13:11:53.135Z,8.46
2023-01-17T13:12:54.069Z,8.46
2023-01-17T13:13:53.059Z,8.49
2023-01-17T13:14:54.089Z,8.31
2023-01-17T13:15:53.047Z,8.42
2023-01-17T13:16:53.036Z,8.45
2023-01-17T13:17:53.021Z,8.52